sensor_id;sensor_type;location;lat;lon;timestamp;pressure;altitude;pressure_sealevel;temperature;humidity
6423;BME280;3244;42.708;23.288;2023-02-17T00:01:59;95986.97;;;2.70;69.62
6423;BME280;3244;42.708;23.288;2023-02-17T00:04:26;95981.13;;;2.74;69.40
6423;BME280;3244;42.708;23.288;2023-02-17T00:06:55;95969.41;;;2.73;70.01
6423;BME280;3244;42.708;23.288;2023-02-17T00:09:22;95974.44;;;2.71;70.37
6423;BME280;3244;42.708;23.288;2023-02-17T00:11:50;95969.34;;;2.65;69.94
6423;BME280;3244;42.708;23.288;2023-02-17T00:14:17;95973.41;;;2.57;70.29
6423;BME280;3244;42.708;23.288;2023-02-17T00:16:44;95978.38;;;2.54;70.24
6423;BME280;3244;42.708;23.288;2023-02-17T00:19:11;95981.66;;;2.49;70.13
6423;BME280;3244;42.708;23.288;2023-02-17T00:21:51;95969.91;;;2.43;70.20
6423;BME280;3244;42.708;23.288;2023-02-17T00:24:20;95983.28;;;2.44;70.88
6423;BME280;3244;42.708;23.288;2023-02-17T00:26:47;95966.56;;;2.44;70.66
6423;BME280;3244;42.708;23.288;2023-02-17T00:29:14;95962.25;;;2.34;70.88
6423;BME280;3244;42.708;23.288;2023-02-17T00:31:41;95926.03;;;2.12;71.62
6423;BME280;3244;42.708;23.288;2023-02-17T00:34:08;95961.47;;;2.38;71.13
6423;BME280;3244;42.708;23.288;2023-02-17T00:36:34;95947.09;;;2.25;71.54
6423;BME280;3244;42.708;23.288;2023-02-17T00:39:01;95953.00;;;2.30;71.25
6423;BME280;3244;42.708;23.288;2023-02-17T00:41:30;95931.13;;;2.18;71.88
6423;BME280;3244;42.708;23.288;2023-02-17T00:43:57;95961.47;;;2.36;71.83
6423;BME280;3244;42.708;23.288;2023-02-17T00:46:25;95948.25;;;2.51;72.06
6423;BME280;3244;42.708;23.288;2023-02-17T00:48:52;95959.91;;;2.46;71.28
6423;BME280;3244;42.708;23.288;2023-02-17T00:51:19;95958.19;;;2.42;71.62
6423;BME280;3244;42.708;23.288;2023-02-17T00:53:46;95956.50;;;2.41;72.09
6423;BME280;3244;42.708;23.288;2023-02-17T00:56:12;95950.69;;;2.44;71.46
6423;BME280;3244;42.708;23.288;2023-02-17T00:58:41;95958.16;;;2.41;71.79
6423;BME280;3244;42.708;23.288;2023-02-17T01:01:08;95949.69;;;2.31;71.86
6423;BME280;3244;42.708;23.288;2023-02-17T01:03:35;95936.31;;;2.32;71.95
6423;BME280;3244;42.708;23.288;2023-02-17T01:06:05;95944.75;;;2.38;71.50
6423;BME280;3244;42.708;23.288;2023-02-17T01:08:32;95947.25;;;2.37;71.41
6423;BME280;3244;42.708;23.288;2023-02-17T01:10:59;95941.28;;;2.29;71.22
6423;BME280;3244;42.708;23.288;2023-02-17T01:13:26;95942.88;;;2.24;71.82
6423;BME280;3244;42.708;23.288;2023-02-17T01:15:54;95941.09;;;2.14;71.34
6423;BME280;3244;42.708;23.288;2023-02-17T01:18:22;95935.16;;;2.07;72.51
6423;BME280;3244;42.708;23.288;2023-02-17T01:20:50;95939.38;;;2.10;72.15
6423;BME280;3244;42.708;23.288;2023-02-17T01:23:16;95937.84;;;2.19;71.51
6423;BME280;3244;42.708;23.288;2023-02-17T01:25:45;95937.88;;;2.21;71.78
6423;BME280;3244;42.708;23.288;2023-02-17T01:28:14;95947.91;;;2.21;71.82
6423;BME280;3244;42.708;23.288;2023-02-17T01:30:42;95937.03;;;2.23;71.55
6423;BME280;3244;42.708;23.288;2023-02-17T01:33:10;95927.84;;;2.21;71.51
6423;BME280;3244;42.708;23.288;2023-02-17T01:35:37;95937.81;;;2.18;71.34
6423;BME280;3244;42.708;23.288;2023-02-17T01:38:03;95933.66;;;2.20;70.83
6423;BME280;3244;42.708;23.288;2023-02-17T01:40:30;95928.66;;;2.20;70.66
6423;BME280;3244;42.708;23.288;2023-02-17T01:42:57;95939.50;;;2.17;71.80
6423;BME280;3244;42.708;23.288;2023-02-17T01:45:33;95935.25;;;2.13;71.49
6423;BME280;3244;42.708;23.288;2023-02-17T01:48:05;95939.38;;;2.10;71.99
6423;BME280;3244;42.708;23.288;2023-02-17T01:50:38;95931.09;;;2.14;71.83
6423;BME280;3244;42.708;23.288;2023-02-17T01:53:08;95931.03;;;2.11;71.82
6423;BME280;3244;42.708;23.288;2023-02-17T01:55:36;95931.03;;;2.11;70.88
6423;BME280;3244;42.708;23.288;2023-02-17T01:58:06;95926.06;;;2.14;71.39
6423;BME280;3244;42.708;23.288;2023-02-17T02:00:35;95929.66;;;2.34;70.95
6423;BME280;3244;42.708;23.288;2023-02-17T02:03:03;95917.13;;;2.35;70.23
6423;BME280;3244;42.708;23.288;2023-02-17T02:05:32;95919.53;;;2.28;71.12
6423;BME280;3244;42.708;23.288;2023-02-17T02:08:00;95921.25;;;2.32;70.83
6423;BME280;3244;42.708;23.288;2023-02-17T02:10:27;95914.53;;;2.28;71.03
6423;BME280;3244;42.708;23.288;2023-02-17T02:12:53;95915.31;;;2.24;71.35
6423;BME280;3244;42.708;23.288;2023-02-17T02:15:22;95907.78;;;2.24;70.82
6423;BME280;3244;42.708;23.288;2023-02-17T02:18:01;95916.06;;;2.17;71.37
6423;BME280;3244;42.708;23.288;2023-02-17T02:26:58;95918.53;;;2.14;71.11
6423;BME280;3244;42.708;23.288;2023-02-17T02:29:44;95920.81;;;1.95;72.03
6423;BME280;3244;42.708;23.288;2023-02-17T02:32:45;95913.09;;;1.82;72.40
6423;BME280;3244;42.708;23.288;2023-02-17T02:35:19;95919.03;;;1.88;72.45
6423;BME280;3244;42.708;23.288;2023-02-17T02:37:52;95919.13;;;1.94;72.60
6423;BME280;3244;42.708;23.288;2023-02-17T02:40:26;95920.81;;;1.94;72.01
6423;BME280;3244;42.708;23.288;2023-02-17T02:42:55;95918.31;;;1.95;71.72
6423;BME280;3244;42.708;23.288;2023-02-17T02:45:22;95929.06;;;1.88;72.38
6423;BME280;3244;42.708;23.288;2023-02-17T02:47:51;95927.44;;;1.92;72.93
6423;BME280;3244;42.708;23.288;2023-02-17T02:50:20;95925.84;;;1.95;72.52
6423;BME280;3244;42.708;23.288;2023-02-17T02:52:57;95916.66;;;1.97;72.35
6423;BME280;3244;42.708;23.288;2023-02-17T02:55:37;95918.28;;;1.92;72.07
6423;BME280;3244;42.708;23.288;2023-02-17T02:58:13;95913.28;;;1.94;72.52
6423;BME280;3244;42.708;23.288;2023-02-17T03:00:49;95932.50;;;1.93;72.08
6423;BME280;3244;42.708;23.288;2023-02-17T03:03:25;95923.25;;;1.91;72.75
6423;BME280;3244;42.708;23.288;2023-02-17T03:05:57;95919.88;;;1.89;72.42
6423;BME280;3244;42.708;23.288;2023-02-17T03:08:27;95915.72;;;1.89;72.38
6423;BME280;3244;42.708;23.288;2023-02-17T03:10:59;95914.84;;;1.87;72.96
6423;BME280;3244;42.708;23.288;2023-02-17T03:13:26;95911.63;;;1.94;73.43
6423;BME280;3244;42.708;23.288;2023-02-17T03:15:53;95924.25;;;2.03;72.53
6423;BME280;3244;42.708;23.288;2023-02-17T03:18:21;95922.47;;;1.93;72.98
6423;BME280;3244;42.708;23.288;2023-02-17T03:20:52;95921.66;;;1.94;73.64
6423;BME280;3244;42.708;23.288;2023-02-17T03:23:20;95930.03;;;1.99;73.74
6423;BME280;3244;42.708;23.288;2023-02-17T03:25:47;95936.63;;;1.91;73.50
6423;BME280;3244;42.708;23.288;2023-02-17T03:28:14;95928.34;;;1.98;73.26
6423;BME280;3244;42.708;23.288;2023-02-17T03:30:41;95930.81;;;1.92;73.68
6423;BME280;3244;42.708;23.288;2023-02-17T03:33:07;95921.44;;;1.81;73.92
6423;BME280;3244;42.708;23.288;2023-02-17T03:35:36;95921.56;;;1.88;73.73
6423;BME280;3244;42.708;23.288;2023-02-17T03:38:03;95923.13;;;1.82;74.53
6423;BME280;3244;42.708;23.288;2023-02-17T03:40:29;95924.09;;;1.91;73.73
6423;BME280;3244;42.708;23.288;2023-02-17T03:42:56;95927.53;;;1.96;73.90
6423;BME280;3244;42.708;23.288;2023-02-17T03:45:23;95924.84;;;1.86;73.68
6423;BME280;3244;42.708;23.288;2023-02-17T03:47:50;95921.44;;;1.81;74.56
6423;BME280;3244;42.708;23.288;2023-02-17T03:50:17;95922.13;;;1.69;74.91
6423;BME280;3244;42.708;23.288;2023-02-17T03:52:45;95912.25;;;1.81;74.27
6423;BME280;3244;42.708;23.288;2023-02-17T03:55:12;95908.97;;;1.85;73.75
6423;BME280;3244;42.708;23.288;2023-02-17T03:57:38;95915.69;;;1.86;73.97
6423;BME280;3244;42.708;23.288;2023-02-17T04:00:06;95918.19;;;1.86;73.50
6423;BME280;3244;42.708;23.288;2023-02-17T04:02:33;95921.47;;;1.84;73.04
6423;BME280;3244;42.708;23.288;2023-02-17T04:05:00;95918.13;;;1.83;74.48
6423;BME280;3244;42.708;23.288;2023-02-17T04:07:27;95912.16;;;1.75;74.48
6423;BME280;3244;42.708;23.288;2023-02-17T04:09:55;95921.38;;;1.76;74.22
6423;BME280;3244;42.708;23.288;2023-02-17T04:12:22;95927.19;;;1.72;73.77
6423;BME280;3244;42.708;23.288;2023-02-17T04:14:48;95918.91;;;1.79;73.86
6423;BME280;3244;42.708;23.288;2023-02-17T04:17:15;95908.78;;;1.70;74.28
6423;BME280;3244;42.708;23.288;2023-02-17T04:19:42;95922.06;;;1.64;74.32
6423;BME280;3244;42.708;23.288;2023-02-17T04:22:08;95920.41;;;1.65;74.74
6423;BME280;3244;42.708;23.288;2023-02-17T04:24:35;95906.22;;;1.67;73.83
6423;BME280;3244;42.708;23.288;2023-02-17T04:27:04;95919.00;;;1.85;74.32
6423;BME280;3244;42.708;23.288;2023-02-17T04:29:31;95923.28;;;1.92;73.37
6423;BME280;3244;42.708;23.288;2023-02-17T04:31:58;95925.59;;;1.80;73.81
6423;BME280;3244;42.708;23.288;2023-02-17T04:34:25;95926.28;;;1.67;74.53
6423;BME280;3244;42.708;23.288;2023-02-17T04:36:51;95923.97;;;1.82;73.69
6423;BME280;3244;42.708;23.288;2023-02-17T04:39:18;95923.84;;;1.73;74.11
6423;BME280;3244;42.708;23.288;2023-02-17T04:41:45;95929.03;;;1.85;73.42
6423;BME280;3244;42.708;23.288;2023-02-17T04:44:13;95937.91;;;1.63;74.77
6423;BME280;3244;42.708;23.288;2023-02-17T04:46:40;95941.09;;;1.53;75.07
6423;BME280;3244;42.708;23.288;2023-02-17T04:49:06;95934.34;;;1.51;75.93
6423;BME280;3244;42.708;23.288;2023-02-17T04:51:33;95924.28;;;1.46;76.41
6423;BME280;3244;42.708;23.288;2023-02-17T04:54:00;95917.63;;;1.47;76.05
6423;BME280;3244;42.708;23.288;2023-02-17T04:56:26;95924.50;;;1.61;76.06
6423;BME280;3244;42.708;23.288;2023-02-17T04:58:53;95933.13;;;1.80;74.68
6423;BME280;3244;42.708;23.288;2023-02-17T05:01:21;95936.59;;;1.88;74.01
6423;BME280;3244;42.708;23.288;2023-02-17T05:03:48;95934.03;;;1.85;74.13
6423;BME280;3244;42.708;23.288;2023-02-17T05:06:14;95944.94;;;1.87;74.36
6423;BME280;3244;42.708;23.288;2023-02-17T05:08:41;95942.28;;;1.78;75.11
6423;BME280;3244;42.708;23.288;2023-02-17T05:11:08;95936.41;;;1.76;75.58
6423;BME280;3244;42.708;23.288;2023-02-17T05:13:35;95943.19;;;1.82;74.84
6423;BME280;3244;42.708;23.288;2023-02-17T05:16:01;95953.50;;;2.03;75.21
6423;BME280;3244;42.708;23.288;2023-02-17T05:18:29;95959.44;;;2.10;74.37
6423;BME280;3244;42.708;23.288;2023-02-17T05:20:56;95957.66;;;2.02;74.31
6423;BME280;3244;42.708;23.288;2023-02-17T05:23:23;95965.00;;;1.89;75.30
6423;BME280;3244;42.708;23.288;2023-02-17T05:25:50;95965.06;;;1.92;75.49
6423;BME280;3244;42.708;23.288;2023-02-17T05:28:16;95953.44;;;1.98;74.68
6423;BME280;3244;42.708;23.288;2023-02-17T05:30:43;95953.47;;;2.01;74.85
6423;BME280;3244;42.708;23.288;2023-02-17T05:33:10;95958.56;;;2.08;74.52
6423;BME280;3244;42.708;23.288;2023-02-17T05:35:38;95965.31;;;2.12;73.99
6423;BME280;3244;42.708;23.288;2023-02-17T05:38:05;95975.66;;;2.36;73.32
6423;BME280;3244;42.708;23.288;2023-02-17T05:40:32;95969.03;;;2.39;72.68
6423;BME280;3244;42.708;23.288;2023-02-17T05:42:58;95984.13;;;2.44;73.41
6423;BME280;3244;42.708;23.288;2023-02-17T05:45:25;95979.16;;;2.49;73.89
6423;BME280;3244;42.708;23.288;2023-02-17T05:47:52;95971.81;;;2.62;74.03
6423;BME280;3244;42.708;23.288;2023-02-17T05:50:19;95969.34;;;2.67;73.25
6423;BME280;3244;42.708;23.288;2023-02-17T05:52:47;95972.88;;;2.84;72.94
6423;BME280;3244;42.708;23.288;2023-02-17T05:55:13;95983.94;;;3.01;71.82
6423;BME280;3244;42.708;23.288;2023-02-17T05:57:40;95983.34;;;3.27;71.45
6423;BME280;3244;42.708;23.288;2023-02-17T06:00:08;95978.50;;;3.45;70.04
6423;BME280;3244;42.708;23.288;2023-02-17T06:02:35;95986.25;;;3.72;69.33
6423;BME280;3244;42.708;23.288;2023-02-17T06:05:01;95985.63;;;4.05;69.11
6423;BME280;3244;42.708;23.288;2023-02-17T06:07:28;95981.72;;;4.59;67.21
6423;BME280;3244;42.708;23.288;2023-02-17T06:09:56;95975.22;;;5.53;64.89
6423;BME280;3244;42.708;23.288;2023-02-17T06:12:23;95975.13;;;6.44;61.88
6423;BME280;3244;42.708;23.288;2023-02-17T06:14:49;95954.78;;;6.82;60.26
6423;BME280;3244;42.708;23.288;2023-02-17T06:17:16;95971.59;;;6.91;58.54
6423;BME280;3244;42.708;23.288;2023-02-17T06:19:43;95980.94;;;6.69;58.94
6423;BME280;3244;42.708;23.288;2023-02-17T06:22:10;95978.47;;;6.58;59.29
6423;BME280;3244;42.708;23.288;2023-02-17T06:24:36;95975.09;;;6.65;58.78
6423;BME280;3244;42.708;23.288;2023-02-17T06:27:04;95986.78;;;6.86;57.49
6423;BME280;3244;42.708;23.288;2023-02-17T06:29:31;95985.03;;;6.96;56.60
6423;BME280;3244;42.708;23.288;2023-02-17T06:31:58;95989.09;;;7.26;55.92
6423;BME280;3244;42.708;23.288;2023-02-17T06:34:25;95986.59;;;8.33;54.38
6423;BME280;3244;42.708;23.288;2023-02-17T06:36:52;95990.41;;;9.35;51.25
6423;BME280;3244;42.708;23.288;2023-02-17T06:39:19;95977.66;;;10.44;49.29
6423;BME280;3244;42.708;23.288;2023-02-17T06:41:45;95977.63;;;11.30;46.89
6423;BME280;3244;42.708;23.288;2023-02-17T06:44:13;95987.03;;;12.35;45.23
6423;BME280;3244;42.708;23.288;2023-02-17T06:46:40;95974.69;;;13.42;42.60
6423;BME280;3244;42.708;23.288;2023-02-17T06:49:07;95977.25;;;14.22;40.13
6423;BME280;3244;42.708;23.288;2023-02-17T06:51:34;95984.22;;;13.91;39.90
6423;BME280;3244;42.708;23.288;2023-02-17T06:54:00;95978.53;;;13.56;40.16
6423;BME280;3244;42.708;23.288;2023-02-17T06:56:27;95982.00;;;13.54;40.51
6423;BME280;3244;42.708;23.288;2023-02-17T06:58:54;95986.31;;;13.80;39.86
6423;BME280;3244;42.708;23.288;2023-02-17T07:01:23;95976.94;;;14.58;38.49
6423;BME280;3244;42.708;23.288;2023-02-17T07:03:51;95976.75;;;14.62;38.17
6423;BME280;3244;42.708;23.288;2023-02-17T07:06:18;95977.91;;;14.03;38.29
6423;BME280;3244;42.708;23.288;2023-02-17T07:08:45;95981.75;;;14.14;39.42
6423;BME280;3244;42.708;23.288;2023-02-17T07:11:13;95974.44;;;15.72;37.08
6423;BME280;3244;42.708;23.288;2023-02-17T07:13:41;95959.25;;;17.65;33.47
6423;BME280;3244;42.708;23.288;2023-02-17T07:16:08;95975.53;;;18.71;31.40
6423;BME280;3244;42.708;23.288;2023-02-17T07:18:37;95978.22;;;19.81;30.00
6423;BME280;3244;42.708;23.288;2023-02-17T07:21:05;95981.47;;;20.30;28.77
6423;BME280;3244;42.708;23.288;2023-02-17T07:23:32;95986.69;;;19.36;28.80
6423;BME280;3244;42.708;23.288;2023-02-17T07:26:00;95981.38;;;17.87;30.85
6423;BME280;3244;42.708;23.288;2023-02-17T07:28:27;95987.63;;;16.67;32.50
6423;BME280;3244;42.708;23.288;2023-02-17T07:30:54;95983.84;;;15.71;34.66
6423;BME280;3244;42.708;23.288;2023-02-17T07:33:21;95991.03;;;15.16;35.86
6423;BME280;3244;42.708;23.288;2023-02-17T07:35:49;95991.38;;;15.30;35.58
6423;BME280;3244;42.708;23.288;2023-02-17T07:38:15;95991.69;;;15.21;36.44
6423;BME280;3244;42.708;23.288;2023-02-17T07:40:42;96005.13;;;15.28;36.54
6423;BME280;3244;42.708;23.288;2023-02-17T07:43:09;96002.06;;;16.29;34.26
6423;BME280;3244;42.708;23.288;2023-02-17T07:45:36;95989.66;;;17.37;32.46
6423;BME280;3244;42.708;23.288;2023-02-17T07:48:03;95985.22;;;18.66;31.04
6423;BME280;3244;42.708;23.288;2023-02-17T07:50:30;95986.19;;;20.08;29.22
6423;BME280;3244;42.708;23.288;2023-02-17T07:52:58;95983.47;;;21.14;27.36
6423;BME280;3244;42.708;23.288;2023-02-17T07:55:24;95981.31;;;21.06;26.97
6423;BME280;3244;42.708;23.288;2023-02-17T07:57:51;95987.03;;;20.83;27.47
6423;BME280;3244;42.708;23.288;2023-02-17T08:00:18;95986.22;;;20.96;27.58
6423;BME280;3244;42.708;23.288;2023-02-17T08:02:45;95981.13;;;21.09;27.22
6423;BME280;3244;42.708;23.288;2023-02-17T08:05:12;95976.06;;;21.50;26.63
6423;BME280;3244;42.708;23.288;2023-02-17T08:07:38;95966.81;;;23.04;25.37
6423;BME280;3244;42.708;23.288;2023-02-17T08:10:09;95977.53;;;24.22;23.99
6423;BME280;3244;42.708;23.288;2023-02-17T08:13:08;95973.22;;;24.91;22.94
6423;BME280;3244;42.708;23.288;2023-02-17T08:15:45;95974.47;;;25.21;22.54
6423;BME280;3244;42.708;23.288;2023-02-17T08:18:12;95976.34;;;25.07;22.55
6423;BME280;3244;42.708;23.288;2023-02-17T08:20:39;95969.59;;;25.27;22.10
6423;BME280;3244;42.708;23.288;2023-02-17T08:23:05;95965.13;;;25.63;21.93
6423;BME280;3244;42.708;23.288;2023-02-17T08:25:34;95956.22;;;25.65;21.56
6423;BME280;3244;42.708;23.288;2023-02-17T08:28:03;95959.91;;;24.96;22.29
6423;BME280;3244;42.708;23.288;2023-02-17T08:30:30;95956.56;;;24.36;23.00
6423;BME280;3244;42.708;23.288;2023-02-17T08:32:57;95951.72;;;24.89;22.94
6423;BME280;3244;42.708;23.288;2023-02-17T08:35:23;95948.59;;;25.85;21.89
6423;BME280;3244;42.708;23.288;2023-02-17T08:37:50;95941.63;;;26.70;21.17
6423;BME280;3244;42.708;23.288;2023-02-17T08:40:17;95942.38;;;27.42;19.99
6423;BME280;3244;42.708;23.288;2023-02-17T08:42:45;95941.94;;;27.87;19.23
6423;BME280;3244;42.708;23.288;2023-02-17T08:45:12;95946.50;;;27.95;18.01
6423;BME280;3244;42.708;23.288;2023-02-17T08:47:39;95939.88;;;27.71;17.98
6423;BME280;3244;42.708;23.288;2023-02-17T08:50:10;95941.81;;;27.49;18.58
6423;BME280;3244;42.708;23.288;2023-02-17T08:52:40;95937.59;;;26.87;18.94
6423;BME280;3244;42.708;23.288;2023-02-17T08:55:07;95943.00;;;26.53;19.05
6423;BME280;3244;42.708;23.288;2023-02-17T08:57:33;95935.97;;;26.12;19.47
6423;BME280;3244;42.708;23.288;2023-02-17T09:00:03;95944.19;;;25.31;19.55
6423;BME280;3244;42.708;23.288;2023-02-17T09:02:30;95949.72;;;24.93;20.02
6423;BME280;3244;42.708;23.288;2023-02-17T09:04:57;95952.13;;;24.50;20.07
6423;BME280;3244;42.708;23.288;2023-02-17T09:07:24;95949.34;;;23.81;20.59
6423;BME280;3244;42.708;23.288;2023-02-17T09:09:50;95942.78;;;23.02;21.00
6423;BME280;3244;42.708;23.288;2023-02-17T09:12:17;95946.28;;;22.51;21.79
6423;BME280;3244;42.708;23.288;2023-02-17T09:14:44;95943.78;;;21.70;22.62
6423;BME280;3244;42.708;23.288;2023-02-17T09:17:12;95941.97;;;20.44;23.49
6423;BME280;3244;42.708;23.288;2023-02-17T09:19:38;95948.09;;;19.82;24.90
6423;BME280;3244;42.708;23.288;2023-02-17T09:22:05;95940.78;;;19.11;25.17
6423;BME280;3244;42.708;23.288;2023-02-17T09:24:32;95946.53;;;18.83;26.05
6423;BME280;3244;42.708;23.288;2023-02-17T09:27:02;95949.91;;;18.68;26.13
6423;BME280;3244;42.708;23.288;2023-02-17T09:29:29;95957.66;;;18.68;26.10
6423;BME280;3244;42.708;23.288;2023-02-17T09:31:56;95954.66;;;18.58;26.04
6423;BME280;3244;42.708;23.288;2023-02-17T09:34:24;95952.81;;;18.62;26.69
6423;BME280;3244;42.708;23.288;2023-02-17T09:36:51;95942.50;;;18.62;26.45
6423;BME280;3244;42.708;23.288;2023-02-17T09:39:17;95950.69;;;18.53;26.13
6423;BME280;3244;42.708;23.288;2023-02-17T09:41:46;95953.84;;;18.41;26.44
6423;BME280;3244;42.708;23.288;2023-02-17T09:44:19;95955.16;;;18.49;26.81
6423;BME280;3244;42.708;23.288;2023-02-17T09:46:52;95950.91;;;18.48;26.48
6423;BME280;3244;42.708;23.288;2023-02-17T09:49:25;95943.41;;;18.44;26.22
6423;BME280;3244;42.708;23.288;2023-02-17T09:51:58;95949.84;;;18.52;26.81
6423;BME280;3244;42.708;23.288;2023-02-17T09:54:31;95927.97;;;18.44;26.43
6423;BME280;3244;42.708;23.288;2023-02-17T09:57:02;95949.03;;;18.52;26.52
6423;BME280;3244;42.708;23.288;2023-02-17T09:59:34;95944.38;;;18.07;27.11
6423;BME280;3244;42.708;23.288;2023-02-17T10:02:06;95940.22;;;17.87;27.65
6423;BME280;3244;42.708;23.288;2023-02-17T10:04:40;95947.09;;;17.86;27.68
6423;BME280;3244;42.708;23.288;2023-02-17T10:07:13;95938.69;;;17.83;28.07
6423;BME280;3244;42.708;23.288;2023-02-17T10:09:46;95932.66;;;17.84;27.35
6423;BME280;3244;42.708;23.288;2023-02-17T10:12:17;95930.84;;;17.86;27.94
6423;BME280;3244;42.708;23.288;2023-02-17T10:14:47;95937.38;;;17.93;27.47
6423;BME280;3244;42.708;23.288;2023-02-17T10:17:19;95929.56;;;17.94;26.91
6423;BME280;3244;42.708;23.288;2023-02-17T10:19:52;95924.19;;;17.82;27.14
6423;BME280;3244;42.708;23.288;2023-02-17T10:22:21;95933.25;;;17.72;26.91
6423;BME280;3244;42.708;23.288;2023-02-17T10:24:48;95928.25;;;17.68;27.33
6423;BME280;3244;42.708;23.288;2023-02-17T10:27:35;95912.84;;;17.68;27.68
6423;BME280;3244;42.708;23.288;2023-02-17T10:30:18;95909.09;;;17.57;27.34
6423;BME280;3244;42.708;23.288;2023-02-17T10:32:59;95909.41;;;17.32;27.60
6423;BME280;3244;42.708;23.288;2023-02-17T10:35:39;95912.88;;;17.31;27.45
6423;BME280;3244;42.708;23.288;2023-02-17T10:38:15;95896.63;;;17.12;27.35
6423;BME280;3244;42.708;23.288;2023-02-17T10:40:45;95902.22;;;17.03;27.64
6423;BME280;3244;42.708;23.288;2023-02-17T10:43:14;95903.03;;;17.03;27.61
6423;BME280;3244;42.708;23.288;2023-02-17T10:45:46;95891.09;;;17.02;27.86
6423;BME280;3244;42.708;23.288;2023-02-17T10:48:17;95886.34;;;17.12;27.24
6423;BME280;3244;42.708;23.288;2023-02-17T10:50:46;95887.75;;;17.00;27.66
6423;BME280;3244;42.708;23.288;2023-02-17T10:53:15;95877.56;;;16.80;27.85
6423;BME280;3244;42.708;23.288;2023-02-17T10:55:52;95873.47;;;16.76;28.34
6423;BME280;3244;42.708;23.288;2023-02-17T10:58:25;95873.09;;;16.83;28.30
6423;BME280;3244;42.708;23.288;2023-02-17T11:00:55;95879.50;;;16.93;28.22
6423;BME280;3244;42.708;23.288;2023-02-17T11:03:24;95878.13;;;17.05;28.35
6423;BME280;3244;42.708;23.288;2023-02-17T11:05:54;95883.19;;;17.07;28.28
6423;BME280;3244;42.708;23.288;2023-02-17T11:08:31;95864.97;;;17.11;28.22
6423;BME280;3244;42.708;23.288;2023-02-17T11:11:02;95877.75;;;17.13;27.92
6423;BME280;3244;42.708;23.288;2023-02-17T11:13:34;95878.19;;;17.04;27.61
6423;BME280;3244;42.708;23.288;2023-02-17T11:16:02;95876.44;;;16.85;26.65
6423;BME280;3244;42.708;23.288;2023-02-17T11:18:32;95876.00;;;16.57;26.88
6423;BME280;3244;42.708;23.288;2023-02-17T11:21:03;95877.81;;;16.34;27.44
6423;BME280;3244;42.708;23.288;2023-02-17T11:23:31;95867.97;;;16.25;27.78
6423;BME280;3244;42.708;23.288;2023-02-17T11:26:01;95867.53;;;16.34;27.83
6423;BME280;3244;42.708;23.288;2023-02-17T11:28:28;95875.63;;;16.46;27.51
6423;BME280;3244;42.708;23.288;2023-02-17T11:30:57;95870.75;;;16.40;27.82
6423;BME280;3244;42.708;23.288;2023-02-17T11:33:30;95868.72;;;16.27;28.34
6423;BME280;3244;42.708;23.288;2023-02-17T11:35:57;95869.75;;;16.23;28.25
6423;BME280;3244;42.708;23.288;2023-02-17T11:38:28;95865.66;;;16.19;28.61
6423;BME280;3244;42.708;23.288;2023-02-17T11:41:00;95861.28;;;16.21;29.08
6423;BME280;3244;42.708;23.288;2023-02-17T11:43:27;95855.31;;;16.21;28.96
6423;BME280;3244;42.708;23.288;2023-02-17T11:45:59;95855.72;;;16.12;29.06
6423;BME280;3244;42.708;23.288;2023-02-17T11:48:39;95855.94;;;16.07;29.24
6423;BME280;3244;42.708;23.288;2023-02-17T11:51:13;95845.75;;;16.06;29.09
6423;BME280;3244;42.708;23.288;2023-02-17T11:53:56;95846.44;;;15.89;29.35
6423;BME280;3244;42.708;23.288;2023-02-17T11:56:30;95839.97;;;15.80;29.15
6423;BME280;3244;42.708;23.288;2023-02-17T11:59:18;95841.06;;;15.75;29.69
6423;BME280;3244;42.708;23.288;2023-02-17T12:01:57;95841.56;;;15.83;29.44
6423;BME280;3244;42.708;23.288;2023-02-17T12:04:28;95834.13;;;15.77;29.21
6423;BME280;3244;42.708;23.288;2023-02-17T12:07:16;95840.28;;;15.73;29.64
6423;BME280;3244;42.708;23.288;2023-02-17T12:09:54;95832.47;;;15.76;29.78
6423;BME280;3244;42.708;23.288;2023-02-17T12:12:30;95828.50;;;15.69;29.57
6423;BME280;3244;42.708;23.288;2023-02-17T12:15:20;95827.00;;;15.63;29.59
6423;BME280;3244;42.708;23.288;2023-02-17T12:17:54;95815.78;;;15.65;29.96
6423;BME280;3244;42.708;23.288;2023-02-17T12:20:34;95820.28;;;15.60;29.64
6423;BME280;3244;42.708;23.288;2023-02-17T12:23:14;95823.31;;;15.48;29.95
6423;BME280;3244;42.708;23.288;2023-02-17T12:25:47;95816.00;;;15.39;30.20
6423;BME280;3244;42.708;23.288;2023-02-17T12:28:37;95811.97;;;15.34;30.42
6423;BME280;3244;42.708;23.288;2023-02-17T12:31:16;95803.63;;;15.28;30.19
6423;BME280;3244;42.708;23.288;2023-02-17T12:33:55;95798.47;;;15.30;30.94
6423;BME280;3244;42.708;23.288;2023-02-17T12:36:26;95790.78;;;15.30;30.62
6423;BME280;3244;42.708;23.288;2023-02-17T12:38:57;95798.56;;;15.27;30.55
6423;BME280;3244;42.708;23.288;2023-02-17T12:41:31;95793.56;;;15.24;30.36
6423;BME280;3244;42.708;23.288;2023-02-17T12:44:03;95785.97;;;15.22;30.46
6423;BME280;3244;42.708;23.288;2023-02-17T12:46:35;95782.44;;;15.25;30.85
6423;BME280;3244;42.708;23.288;2023-02-17T12:49:08;95786.78;;;15.23;30.61
6423;BME280;3244;42.708;23.288;2023-02-17T12:51:40;95777.84;;;15.33;30.45
6423;BME280;3244;42.708;23.288;2023-02-17T12:54:14;95777.56;;;15.39;30.37
6423;BME280;3244;42.708;23.288;2023-02-17T12:57:09;95774.91;;;15.42;30.45
6423;BME280;3244;42.708;23.288;2023-02-17T12:59:39;95771.44;;;15.43;30.87
6423;BME280;3244;42.708;23.288;2023-02-17T13:02:10;95769.47;;;15.50;30.26
6423;BME280;3244;42.708;23.288;2023-02-17T13:04:38;95765.53;;;15.41;30.71
6423;BME280;3244;42.708;23.288;2023-02-17T13:10:05;95767.34;;;15.39;30.63
6423;BME280;3244;42.708;23.288;2023-02-17T13:12:38;95767.09;;;15.45;30.52
6423;BME280;3244;42.708;23.288;2023-02-17T13:15:27;95770.94;;;15.55;30.04
6423;BME280;3244;42.708;23.288;2023-02-17T13:17:55;95771.84;;;15.54;30.27
6423;BME280;3244;42.708;23.288;2023-02-17T13:20:36;95764.81;;;15.59;29.92
6423;BME280;3244;42.708;23.288;2023-02-17T13:23:08;95760.50;;;15.60;30.02
6423;BME280;3244;42.708;23.288;2023-02-17T13:25:36;95766.56;;;15.59;30.04
6423;BME280;3244;42.708;23.288;2023-02-17T13:31:09;95758.78;;;15.60;30.43
6423;BME280;3244;42.708;23.288;2023-02-17T13:33:44;95757.88;;;15.61;30.24
6423;BME280;3244;42.708;23.288;2023-02-17T13:36:14;95760.25;;;15.66;30.08
6423;BME280;3244;42.708;23.288;2023-02-17T13:38:52;95749.94;;;15.68;30.12
6423;BME280;3244;42.708;23.288;2023-02-17T13:41:20;95755.19;;;15.64;29.47
6423;BME280;3244;42.708;23.288;2023-02-17T13:43:48;95761.28;;;15.62;28.91